Decoded Metar for KW75 ( in ) (IATA:) | Meteo·Mobile Aviation Weather
aviador You're here:

KW75 Decoded Metar

in
Report Time2020-02-22 21:35:00
UTC Time2020-02-22 21:51:57
Flight Rules vfr VFR
Wind170° at 08 kt
Visibility9999 m
Phenomena:N/A
Clouds:N/A
Expected CloudBase > 7,600 ft AGL from Temp-Dew spread
CeilingNone
Temp10°C
Dew Point-9°C (25% RH)
AAT4.1°C
QNH1026 hPa
Raw Report
METAR KW75 222135Z AUTO 17008KT 10SM CLR 10/M09 A3029 RMK AO1 T01001094=

Extra information for KW75:More info

Social comments